sensor_id;sensor_type;location;lat;lon;timestamp;pressure;altitude;pressure_sealevel;temperature;humidity
12879;BME280;20617;49.476;10.986;2023-01-10T00:01:35;97812.16;;;5.74;100.00
12879;BME280;20617;49.476;10.986;2023-01-10T00:03:40;97821.66;;;5.74;100.00
12879;BME280;20617;49.476;10.986;2023-01-10T00:05:45;97822.59;;;5.71;100.00
12879;BME280;20617;49.476;10.986;2023-01-10T00:07:50;97830.28;;;5.73;100.00
12879;BME280;20617;49.476;10.986;2023-01-10T00:09:55;97819.06;;;5.74;100.00
12879;BME280;20617;49.476;10.986;2023-01-10T00:12:00;97824.16;;;5.77;100.00
12879;BME280;20617;49.476;10.986;2023-01-10T00:14:18;97825.25;;;5.68;100.00
12879;BME280;20617;49.476;10.986;2023-01-10T00:16:25;97831.91;;;5.77;100.00
12879;BME280;20617;49.476;10.986;2023-01-10T00:18:30;97832.66;;;5.80;100.00
12879;BME280;20617;49.476;10.986;2023-01-10T00:20:35;97852.56;;;5.77;100.00
12879;BME280;20617;49.476;10.986;2023-01-10T00:22:39;97849.16;;;5.75;100.00
12879;BME280;20617;49.476;10.986;2023-01-10T00:24:44;97855.25;;;5.72;100.00
12879;BME280;20617;49.476;10.986;2023-01-10T00:26:50;97852.22;;;5.87;100.00
12879;BME280;20617;49.476;10.986;2023-01-10T00:28:55;97850.50;;;5.88;100.00
12879;BME280;20617;49.476;10.986;2023-01-10T00:31:01;97854.03;;;5.85;100.00
12879;BME280;20617;49.476;10.986;2023-01-10T00:33:12;97859.13;;;5.87;100.00
12879;BME280;20617;49.476;10.986;2023-01-10T00:35:23;97864.16;;;5.92;100.00
12879;BME280;20617;49.476;10.986;2023-01-10T00:37:28;97863.41;;;5.88;100.00
12879;BME280;20617;49.476;10.986;2023-01-10T00:39:32;97864.25;;;5.88;100.00
12879;BME280;20617;49.476;10.986;2023-01-10T00:41:38;97865.91;;;5.91;100.00
12879;BME280;20617;49.476;10.986;2023-01-10T00:43:55;97873.59;;;5.94;100.00
12879;BME280;20617;49.476;10.986;2023-01-10T00:46:00;97876.34;;;5.88;100.00
12879;BME280;20617;49.476;10.986;2023-01-10T00:48:06;97872.84;;;5.89;100.00
12879;BME280;20617;49.476;10.986;2023-01-10T00:50:13;97878.84;;;5.89;100.00
12879;BME280;20617;49.476;10.986;2023-01-10T00:52:18;97876.44;;;5.85;100.00
12879;BME280;20617;49.476;10.986;2023-01-10T00:54:23;97879.75;;;5.88;100.00
12879;BME280;20617;49.476;10.986;2023-01-10T00:56:28;97892.81;;;5.84;100.00
12879;BME280;20617;49.476;10.986;2023-01-10T00:58:33;97893.72;;;5.81;100.00
12879;BME280;20617;49.476;10.986;2023-01-10T01:00:38;97901.72;;;5.74;100.00
12879;BME280;20617;49.476;10.986;2023-01-10T01:02:42;97908.63;;;5.73;100.00
12879;BME280;20617;49.476;10.986;2023-01-10T01:04:49;97909.41;;;5.75;100.00
12879;BME280;20617;49.476;10.986;2023-01-10T01:06:56;97907.81;;;5.71;100.00
12879;BME280;20617;49.476;10.986;2023-01-10T01:09:01;97913.84;;;5.70;100.00
12879;BME280;20617;49.476;10.986;2023-01-10T01:11:06;97917.03;;;5.80;100.00
12879;BME280;20617;49.476;10.986;2023-01-10T01:13:15;97928.13;;;5.83;100.00
12879;BME280;20617;49.476;10.986;2023-01-10T01:15:20;97924.53;;;5.87;100.00
12879;BME280;20617;49.476;10.986;2023-01-10T01:17:25;97938.75;;;5.73;100.00
12879;BME280;20617;49.476;10.986;2023-01-10T01:19:30;97931.69;;;5.79;100.00
12879;BME280;20617;49.476;10.986;2023-01-10T01:21:34;97938.50;;;5.82;100.00
12879;BME280;20617;49.476;10.986;2023-01-10T01:23:42;97948.03;;;5.80;100.00
12879;BME280;20617;49.476;10.986;2023-01-10T01:25:49;97945.28;;;5.86;100.00
12879;BME280;20617;49.476;10.986;2023-01-10T01:27:54;97955.53;;;5.89;100.00
12879;BME280;20617;49.476;10.986;2023-01-10T01:29:59;97956.41;;;5.88;100.00
12879;BME280;20617;49.476;10.986;2023-01-10T01:32:04;97961.63;;;5.86;100.00
12879;BME280;20617;49.476;10.986;2023-01-10T01:34:09;97964.88;;;5.95;100.00
12879;BME280;20617;49.476;10.986;2023-01-10T01:36:14;97968.22;;;5.98;100.00
12879;BME280;20617;49.476;10.986;2023-01-10T01:38:19;97967.09;;;6.07;100.00
12879;BME280;20617;49.476;10.986;2023-01-10T01:40:26;97961.81;;;6.11;100.00
12879;BME280;20617;49.476;10.986;2023-01-10T01:42:32;97961.63;;;6.18;100.00
12879;BME280;20617;49.476;10.986;2023-01-10T01:44:38;97962.34;;;6.23;100.00
12879;BME280;20617;49.476;10.986;2023-01-10T01:46:48;97972.63;;;6.24;100.00
12879;BME280;20617;49.476;10.986;2023-01-10T01:48:54;97972.94;;;6.13;100.00
12879;BME280;20617;49.476;10.986;2023-01-10T01:51:02;97973.75;;;6.16;100.00
12879;BME280;20617;49.476;10.986;2023-01-10T01:53:12;97980.44;;;6.23;100.00
12879;BME280;20617;49.476;10.986;2023-01-10T01:55:18;97988.09;;;6.26;100.00
12879;BME280;20617;49.476;10.986;2023-01-10T01:57:28;97984.59;;;6.28;100.00
12879;BME280;20617;49.476;10.986;2023-01-10T01:59:36;97984.53;;;6.30;100.00
12879;BME280;20617;49.476;10.986;2023-01-10T02:01:44;97990.41;;;6.35;100.00
12879;BME280;20617;49.476;10.986;2023-01-10T02:03:52;97986.31;;;6.28;100.00
12879;BME280;20617;49.476;10.986;2023-01-10T02:05:59;97987.38;;;6.21;100.00
12879;BME280;20617;49.476;10.986;2023-01-10T02:08:04;97992.81;;;6.11;100.00
12879;BME280;20617;49.476;10.986;2023-01-10T02:10:10;97990.91;;;6.18;100.00
12879;BME280;20617;49.476;10.986;2023-01-10T02:12:18;97996.91;;;6.19;100.00
12879;BME280;20617;49.476;10.986;2023-01-10T02:14:26;98003.91;;;6.15;100.00
12879;BME280;20617;49.476;10.986;2023-01-10T02:16:30;98003.91;;;6.15;100.00
12879;BME280;20617;49.476;10.986;2023-01-10T02:18:36;98004.56;;;6.22;100.00
12879;BME280;20617;49.476;10.986;2023-01-10T02:21:09;98017.50;;;6.22;100.00
12879;BME280;20617;49.476;10.986;2023-01-10T02:23:37;98009.75;;;6.22;100.00
12879;BME280;20617;49.476;10.986;2023-01-10T02:26:13;98011.41;;;6.24;100.00
12879;BME280;20617;49.476;10.986;2023-01-10T02:28:38;98013.94;;;6.26;100.00
12879;BME280;20617;49.476;10.986;2023-01-10T02:31:12;98024.41;;;6.21;100.00
12879;BME280;20617;49.476;10.986;2023-01-10T02:33:26;98030.59;;;6.16;100.00
12879;BME280;20617;49.476;10.986;2023-01-10T02:35:52;98034.34;;;6.05;100.00
12879;BME280;20617;49.476;10.986;2023-01-10T02:38:08;98034.34;;;6.05;100.00
12879;BME280;20617;49.476;10.986;2023-01-10T02:40:23;98039.72;;;5.98;100.00
12879;BME280;20617;49.476;10.986;2023-01-10T02:42:36;98045.78;;;5.97;100.00
12879;BME280;20617;49.476;10.986;2023-01-10T02:44:46;98045.53;;;6.04;100.00
12879;BME280;20617;49.476;10.986;2023-01-10T02:46:55;98044.97;;;5.93;100.00
12879;BME280;20617;49.476;10.986;2023-01-10T02:49:02;98051.78;;;5.97;100.00
12879;BME280;20617;49.476;10.986;2023-01-10T02:51:10;98052.72;;;5.95;100.00
12879;BME280;20617;49.476;10.986;2023-01-10T02:53:25;98054.28;;;6.00;100.00
12879;BME280;20617;49.476;10.986;2023-01-10T02:55:48;98057.75;;;5.99;100.00
12879;BME280;20617;49.476;10.986;2023-01-10T02:58:03;98061.09;;;6.03;100.00
12879;BME280;20617;49.476;10.986;2023-01-10T03:00:25;98064.53;;;6.03;100.00
12879;BME280;20617;49.476;10.986;2023-01-10T03:02:45;98059.25;;;6.08;100.00
12879;BME280;20617;49.476;10.986;2023-01-10T03:05:07;98072.13;;;6.09;100.00
12879;BME280;20617;49.476;10.986;2023-01-10T03:07:17;98075.59;;;6.08;100.00
12879;BME280;20617;49.476;10.986;2023-01-10T03:09:30;98075.44;;;6.15;100.00
12879;BME280;20617;49.476;10.986;2023-01-10T03:11:38;98077.41;;;6.05;100.00
12879;BME280;20617;49.476;10.986;2023-01-10T03:13:48;98079.84;;;6.11;100.00
12879;BME280;20617;49.476;10.986;2023-01-10T03:15:56;98087.78;;;6.03;100.00
12879;BME280;20617;49.476;10.986;2023-01-10T03:18:07;98085.09;;;6.08;100.00
12879;BME280;20617;49.476;10.986;2023-01-10T03:20:16;98091.22;;;6.04;100.00
12879;BME280;20617;49.476;10.986;2023-01-10T03:22:24;98095.34;;;6.11;100.00
12879;BME280;20617;49.476;10.986;2023-01-10T03:24:32;98098.69;;;6.15;100.00
12879;BME280;20617;49.476;10.986;2023-01-10T03:26:44;98098.78;;;6.11;100.00
12879;BME280;20617;49.476;10.986;2023-01-10T03:28:54;98100.53;;;6.09;100.00
12879;BME280;20617;49.476;10.986;2023-01-10T03:31:04;98107.69;;;6.00;100.00
12879;BME280;20617;49.476;10.986;2023-01-10T03:33:11;98113.66;;;6.02;100.00
12879;BME280;20617;49.476;10.986;2023-01-10T03:35:21;98118.97;;;5.97;100.00
12879;BME280;20617;49.476;10.986;2023-01-10T03:37:34;98125.66;;;6.04;100.00
12879;BME280;20617;49.476;10.986;2023-01-10T03:39:49;98130.97;;;5.98;100.00
12879;BME280;20617;49.476;10.986;2023-01-10T03:42:03;98138.78;;;5.97;100.00
12879;BME280;20617;49.476;10.986;2023-01-10T03:44:15;98151.88;;;5.87;100.00
12879;BME280;20617;49.476;10.986;2023-01-10T03:46:38;98156.41;;;5.79;100.00
12879;BME280;20617;49.476;10.986;2023-01-10T03:48:46;98161.56;;;5.79;100.00
12879;BME280;20617;49.476;10.986;2023-01-10T03:50:55;98173.50;;;5.85;100.00
12879;BME280;20617;49.476;10.986;2023-01-10T03:53:02;98178.66;;;5.85;100.00
12879;BME280;20617;49.476;10.986;2023-01-10T03:55:10;98176.00;;;5.88;100.00
12879;BME280;20617;49.476;10.986;2023-01-10T03:57:20;98168.31;;;5.85;100.00
12879;BME280;20617;49.476;10.986;2023-01-10T03:59:26;98170.47;;;5.67;100.00
12879;BME280;20617;49.476;10.986;2023-01-10T04:01:32;98179.22;;;5.62;100.00
12879;BME280;20617;49.476;10.986;2023-01-10T04:03:36;98187.66;;;5.67;100.00
12879;BME280;20617;49.476;10.986;2023-01-10T04:05:42;98194.56;;;5.68;100.00
12879;BME280;20617;49.476;10.986;2023-01-10T04:07:49;98193.84;;;5.61;100.00
12879;BME280;20617;49.476;10.986;2023-01-10T04:09:54;98201.47;;;5.66;100.00
12879;BME280;20617;49.476;10.986;2023-01-10T04:11:58;98209.16;;;5.69;100.00
12879;BME280;20617;49.476;10.986;2023-01-10T04:14:04;98204.84;;;5.70;100.00
12879;BME280;20617;49.476;10.986;2023-01-10T04:16:09;98216.75;;;5.75;100.00
12879;BME280;20617;49.476;10.986;2023-01-10T04:18:14;98217.66;;;5.74;100.00
12879;BME280;20617;49.476;10.986;2023-01-10T04:20:20;98221.13;;;5.73;100.00
12879;BME280;20617;49.476;10.986;2023-01-10T04:22:25;98222.75;;;5.77;100.00
12879;BME280;20617;49.476;10.986;2023-01-10T04:24:33;98225.22;;;5.82;100.00
12879;BME280;20617;49.476;10.986;2023-01-10T04:26:38;98226.94;;;5.81;100.00
12879;BME280;20617;49.476;10.986;2023-01-10T04:28:43;98232.94;;;5.83;100.00
12879;BME280;20617;49.476;10.986;2023-01-10T04:30:50;98245.16;;;5.77;100.00
12879;BME280;20617;49.476;10.986;2023-01-10T04:32:55;98246.81;;;5.79;100.00
12879;BME280;20617;49.476;10.986;2023-01-10T04:34:59;98243.34;;;5.80;100.00
12879;BME280;20617;49.476;10.986;2023-01-10T04:37:04;98252.69;;;5.86;100.00
12879;BME280;20617;49.476;10.986;2023-01-10T04:39:09;98248.44;;;5.83;100.00
12879;BME280;20617;49.476;10.986;2023-01-10T04:41:17;98253.75;;;5.76;100.00
12879;BME280;20617;49.476;10.986;2023-01-10T04:43:22;98270.00;;;5.82;100.00
12879;BME280;20617;49.476;10.986;2023-01-10T04:45:27;98264.81;;;5.82;100.00
12879;BME280;20617;49.476;10.986;2023-01-10T04:47:32;98270.94;;;5.78;100.00
12879;BME280;20617;49.476;10.986;2023-01-10T04:49:37;98275.25;;;5.78;100.00
12879;BME280;20617;49.476;10.986;2023-01-10T04:51:42;98283.22;;;5.68;100.00
12879;BME280;20617;49.476;10.986;2023-01-10T04:53:46;98281.53;;;5.67;100.00
12879;BME280;20617;49.476;10.986;2023-01-10T04:55:51;98289.34;;;5.64;100.00
12879;BME280;20617;49.476;10.986;2023-01-10T04:58:00;98282.50;;;5.62;100.00
12879;BME280;20617;49.476;10.986;2023-01-10T05:00:09;98292.72;;;5.66;100.00
12879;BME280;20617;49.476;10.986;2023-01-10T05:02:15;98291.88;;;5.66;100.00
12879;BME280;20617;49.476;10.986;2023-01-10T05:04:20;98302.19;;;5.67;100.00
12879;BME280;20617;49.476;10.986;2023-01-10T05:06:25;98312.53;;;5.66;100.00
12879;BME280;20617;49.476;10.986;2023-01-10T05:08:29;98308.94;;;5.73;100.00
12879;BME280;20617;49.476;10.986;2023-01-10T05:10:34;98315.88;;;5.71;100.00
12879;BME280;20617;49.476;10.986;2023-01-10T05:12:39;98327.13;;;5.68;100.00
12879;BME280;20617;49.476;10.986;2023-01-10T05:14:49;98328.72;;;5.73;100.00
12879;BME280;20617;49.476;10.986;2023-01-10T05:16:53;98340.78;;;5.74;100.00
12879;BME280;20617;49.476;10.986;2023-01-10T05:18:58;98334.66;;;5.78;100.00
12879;BME280;20617;49.476;10.986;2023-01-10T05:21:09;98344.22;;;5.74;100.00
12879;BME280;20617;49.476;10.986;2023-01-10T05:23:14;98344.22;;;5.74;100.00
12879;BME280;20617;49.476;10.986;2023-01-10T05:25:19;98350.16;;;5.78;100.00
12879;BME280;20617;49.476;10.986;2023-01-10T05:27:24;98348.56;;;5.72;100.00
12879;BME280;20617;49.476;10.986;2023-01-10T05:29:29;98350.97;;;5.80;100.00
12879;BME280;20617;49.476;10.986;2023-01-10T05:31:36;98351.81;;;5.82;100.00
12879;BME280;20617;49.476;10.986;2023-01-10T05:33:43;98355.19;;;5.84;100.00
12879;BME280;20617;49.476;10.986;2023-01-10T05:35:50;98354.19;;;5.91;100.00
12879;BME280;20617;49.476;10.986;2023-01-10T05:37:55;98356.72;;;5.94;100.00
12879;BME280;20617;49.476;10.986;2023-01-10T05:39:59;98361.06;;;5.94;100.00
12879;BME280;20617;49.476;10.986;2023-01-10T05:42:04;98362.88;;;5.87;100.00
12879;BME280;20617;49.476;10.986;2023-01-10T05:44:09;98370.50;;;5.95;100.00
12879;BME280;20617;49.476;10.986;2023-01-10T05:46:15;98372.25;;;5.94;100.00
12879;BME280;20617;49.476;10.986;2023-01-10T05:48:23;98377.50;;;5.88;100.00
12879;BME280;20617;49.476;10.986;2023-01-10T05:50:28;98380.84;;;5.93;100.00
12879;BME280;20617;49.476;10.986;2023-01-10T05:52:34;98385.13;;;5.93;100.00
12879;BME280;20617;49.476;10.986;2023-01-10T05:54:39;98389.44;;;5.95;100.00
12879;BME280;20617;49.476;10.986;2023-01-10T05:56:45;98402.41;;;5.94;100.00
12879;BME280;20617;49.476;10.986;2023-01-10T05:58:51;98402.34;;;5.97;100.00
12879;BME280;20617;49.476;10.986;2023-01-10T06:01:08;98403.19;;;5.96;100.00
12879;BME280;20617;49.476;10.986;2023-01-10T06:03:13;98410.81;;;6.02;100.00
12879;BME280;20617;49.476;10.986;2023-01-10T06:05:21;98414.28;;;6.02;100.00
12879;BME280;20617;49.476;10.986;2023-01-10T06:07:26;98408.28;;;6.00;100.00
12879;BME280;20617;49.476;10.986;2023-01-10T06:09:32;98418.75;;;5.94;100.00
12879;BME280;20617;49.476;10.986;2023-01-10T06:11:37;98422.94;;;6.00;100.00
12879;BME280;20617;49.476;10.986;2023-01-10T06:13:42;98428.34;;;5.86;100.00
12879;BME280;20617;49.476;10.986;2023-01-10T06:15:49;98433.66;;;5.78;100.00
12879;BME280;20617;49.476;10.986;2023-01-10T06:17:54;98437.97;;;5.78;100.00
12879;BME280;20617;49.476;10.986;2023-01-10T06:19:59;98440.56;;;5.78;100.00
12879;BME280;20617;49.476;10.986;2023-01-10T06:22:07;98442.25;;;5.79;100.00
12879;BME280;20617;49.476;10.986;2023-01-10T06:24:12;98441.59;;;5.69;100.00
12879;BME280;20617;49.476;10.986;2023-01-10T06:26:16;98450.28;;;5.65;100.00
12879;BME280;20617;49.476;10.986;2023-01-10T06:28:21;98453.00;;;5.59;100.00
12879;BME280;20617;49.476;10.986;2023-01-10T06:30:26;98447.97;;;5.51;100.00
12879;BME280;20617;49.476;10.986;2023-01-10T06:32:31;98454.81;;;5.52;100.00
12879;BME280;20617;49.476;10.986;2023-01-10T06:34:36;98468.56;;;5.56;100.00
12879;BME280;20617;49.476;10.986;2023-01-10T06:36:41;98462.44;;;5.61;100.00
12879;BME280;20617;49.476;10.986;2023-01-10T06:38:48;98464.28;;;5.53;100.00
12879;BME280;20617;49.476;10.986;2023-01-10T06:40:53;98486.72;;;5.50;100.00
12879;BME280;20617;49.476;10.986;2023-01-10T06:42:58;98491.19;;;5.40;100.00
12879;BME280;20617;49.476;10.986;2023-01-10T06:45:04;98511.00;;;5.38;100.00
12879;BME280;20617;49.476;10.986;2023-01-10T06:47:09;98509.31;;;5.37;100.00
12879;BME280;20617;49.476;10.986;2023-01-10T06:49:14;98509.38;;;5.35;100.00
12879;BME280;20617;49.476;10.986;2023-01-10T06:51:18;98515.44;;;5.31;100.00
12879;BME280;20617;49.476;10.986;2023-01-10T06:53:23;98519.75;;;5.31;100.00
12879;BME280;20617;49.476;10.986;2023-01-10T06:55:31;98523.13;;;5.34;100.00
12879;BME280;20617;49.476;10.986;2023-01-10T06:57:36;98524.88;;;5.34;100.00
12879;BME280;20617;49.476;10.986;2023-01-10T06:59:40;98538.66;;;5.31;100.00
12879;BME280;20617;49.476;10.986;2023-01-10T07:01:45;98549.00;;;5.31;100.00
12879;BME280;20617;49.476;10.986;2023-01-10T07:03:50;98556.75;;;5.31;100.00
12879;BME280;20617;49.476;10.986;2023-01-10T07:05:59;98563.53;;;5.37;100.00
12879;BME280;20617;49.476;10.986;2023-01-10T07:08:04;98565.31;;;5.33;100.00
12879;BME280;20617;49.476;10.986;2023-01-10T07:10:10;98572.16;;;5.36;100.00
12879;BME280;20617;49.476;10.986;2023-01-10T07:12:18;98561.75;;;5.40;100.00
12879;BME280;20617;49.476;10.986;2023-01-10T07:14:22;98561.69;;;5.43;100.00
12879;BME280;20617;49.476;10.986;2023-01-10T07:16:27;98571.91;;;5.50;100.00
12879;BME280;20617;49.476;10.986;2023-01-10T07:18:33;98581.50;;;5.43;100.00
12879;BME280;20617;49.476;10.986;2023-01-10T07:20:38;98577.19;;;5.43;100.00
12879;BME280;20617;49.476;10.986;2023-01-10T07:22:43;98582.38;;;5.42;100.00
12879;BME280;20617;49.476;10.986;2023-01-10T07:24:48;98590.97;;;5.42;100.00
12879;BME280;20617;49.476;10.986;2023-01-10T07:26:54;98590.81;;;5.52;100.00
12879;BME280;20617;49.476;10.986;2023-01-10T07:29:01;98589.94;;;5.54;100.00
12879;BME280;20617;49.476;10.986;2023-01-10T07:31:06;98585.44;;;5.64;100.00
12879;BME280;20617;49.476;10.986;2023-01-10T07:33:11;98601.78;;;5.67;100.00
12879;BME280;20617;49.476;10.986;2023-01-10T07:35:16;98609.38;;;5.75;100.00
12879;BME280;20617;49.476;10.986;2023-01-10T07:37:21;98617.00;;;5.83;100.00
12879;BME280;20617;49.476;10.986;2023-01-10T07:39:26;98620.25;;;5.93;100.00
12879;BME280;20617;49.476;10.986;2023-01-10T07:41:31;98623.66;;;5.99;100.00
12879;BME280;20617;49.476;10.986;2023-01-10T07:43:37;98622.84;;;5.93;100.00
12879;BME280;20617;49.476;10.986;2023-01-10T07:45:44;98635.97;;;5.82;100.00
12879;BME280;20617;49.476;10.986;2023-01-10T07:47:49;98640.94;;;5.93;100.00
12879;BME280;20617;49.476;10.986;2023-01-10T07:49:54;98635.78;;;5.93;100.00
12879;BME280;20617;49.476;10.986;2023-01-10T07:51:59;98648.00;;;5.83;100.00
12879;BME280;20617;49.476;10.986;2023-01-10T07:54:04;98642.72;;;5.89;100.00
12879;BME280;20617;49.476;10.986;2023-01-10T07:56:09;98651.50;;;5.79;100.00
12879;BME280;20617;49.476;10.986;2023-01-10T07:58:14;98663.47;;;5.84;100.00
12879;BME280;20617;49.476;10.986;2023-01-10T08:00:19;98664.25;;;5.89;100.00
12879;BME280;20617;49.476;10.986;2023-01-10T08:02:26;98671.91;;;5.97;100.00
12879;BME280;20617;49.476;10.986;2023-01-10T08:04:32;98667.53;;;6.01;100.00
12879;BME280;20617;49.476;10.986;2023-01-10T08:06:36;98673.66;;;5.95;100.00
12879;BME280;20617;49.476;10.986;2023-01-10T08:08:41;98676.38;;;5.86;100.00
12879;BME280;20617;49.476;10.986;2023-01-10T08:10:46;98680.75;;;5.81;100.00
12879;BME280;20617;49.476;10.986;2023-01-10T08:12:51;98680.94;;;5.68;100.00
12879;BME280;20617;49.476;10.986;2023-01-10T08:14:57;98686.00;;;5.75;100.00
12879;BME280;20617;49.476;10.986;2023-01-10T08:17:02;98674.88;;;5.71;100.00
12879;BME280;20617;49.476;10.986;2023-01-10T08:19:09;98674.78;;;5.76;100.00
12879;BME280;20617;49.476;10.986;2023-01-10T08:21:18;98671.34;;;5.77;100.00
12879;BME280;20617;49.476;10.986;2023-01-10T08:23:23;98682.47;;;5.82;100.00
12879;BME280;20617;49.476;10.986;2023-01-10T08:25:28;98684.06;;;5.90;100.00
12879;BME280;20617;49.476;10.986;2023-01-10T08:27:33;98680.59;;;5.92;100.00
12879;BME280;20617;49.476;10.986;2023-01-10T08:29:38;98682.31;;;5.94;100.00
12879;BME280;20617;49.476;10.986;2023-01-10T08:31:43;98688.34;;;5.90;100.00
12879;BME280;20617;49.476;10.986;2023-01-10T08:33:48;98688.44;;;5.84;100.00
12879;BME280;20617;49.476;10.986;2023-01-10T08:35:55;98704.06;;;5.78;100.00
12879;BME280;20617;49.476;10.986;2023-01-10T08:38:00;98705.75;;;5.80;100.00
12879;BME280;20617;49.476;10.986;2023-01-10T08:40:07;98714.28;;;5.85;100.00
12879;BME280;20617;49.476;10.986;2023-01-10T08:42:12;98715.97;;;5.88;100.00
12879;BME280;20617;49.476;10.986;2023-01-10T08:44:17;98712.53;;;5.86;100.00
12879;BME280;20617;49.476;10.986;2023-01-10T08:46:22;98699.50;;;5.95;100.00
12879;BME280;20617;49.476;10.986;2023-01-10T08:48:27;98700.38;;;5.94;100.00
12879;BME280;20617;49.476;10.986;2023-01-10T08:50:32;98695.13;;;6.00;100.00
12879;BME280;20617;49.476;10.986;2023-01-10T08:52:40;98689.03;;;6.03;100.00
12879;BME280;20617;49.476;10.986;2023-01-10T08:54:45;98694.13;;;6.07;100.00
12879;BME280;20617;49.476;10.986;2023-01-10T08:56:51;98706.34;;;5.99;100.00
12879;BME280;20617;49.476;10.986;2023-01-10T08:58:55;98714.09;;;5.99;100.00
12879;BME280;20617;49.476;10.986;2023-01-10T09:01:02;98714.16;;;5.95;100.00
12879;BME280;20617;49.476;10.986;2023-01-10T09:03:08;98734.84;;;5.93;100.00
12879;BME280;20617;49.476;10.986;2023-01-10T09:05:13;98739.16;;;5.94;100.00
12879;BME280;20617;49.476;10.986;2023-01-10T09:07:33;98739.16;;;5.94;100.00
12879;BME280;20617;49.476;10.986;2023-01-10T09:09:40;98745.88;;;6.04;100.00
12879;BME280;20617;49.476;10.986;2023-01-10T09:11:45;98749.22;;;6.11;100.00
12879;BME280;20617;49.476;10.986;2023-01-10T09:13:50;98753.47;;;6.13;100.00
12879;BME280;20617;49.476;10.986;2023-01-10T09:15:56;98758.63;;;6.13;100.00
12879;BME280;20617;49.476;10.986;2023-01-10T09:18:02;98763.00;;;6.11;100.00
12879;BME280;20617;49.476;10.986;2023-01-10T09:20:09;98770.94;;;5.99;100.00
12879;BME280;20617;49.476;10.986;2023-01-10T09:22:14;98779.66;;;5.94;100.00
12879;BME280;20617;49.476;10.986;2023-01-10T09:24:19;98789.16;;;5.87;100.00
12879;BME280;20617;49.476;10.986;2023-01-10T09:26:26;98784.09;;;5.82;100.00
12879;BME280;20617;49.476;10.986;2023-01-10T09:28:31;98790.91;;;5.86;100.00
12879;BME280;20617;49.476;10.986;2023-01-10T09:30:36;98790.00;;;5.87;100.00
12879;BME280;20617;49.476;10.986;2023-01-10T09:32:41;98784.84;;;5.87;100.00
12879;BME280;20617;49.476;10.986;2023-01-10T09:34:46;98791.69;;;5.93;100.00
12879;BME280;20617;49.476;10.986;2023-01-10T09:36:52;98793.31;;;6.00;100.00
12879;BME280;20617;49.476;10.986;2023-01-10T09:38:56;98790.72;;;6.00;100.00
12879;BME280;20617;49.476;10.986;2023-01-10T09:41:13;98786.22;;;6.13;100.00
12879;BME280;20617;49.476;10.986;2023-01-10T09:43:29;98772.34;;;6.19;100.00
12879;BME280;20617;49.476;10.986;2023-01-10T09:45:44;98770.59;;;6.19;100.00
12879;BME280;20617;49.476;10.986;2023-01-10T09:47:56;98776.66;;;6.20;100.00
12879;BME280;20617;49.476;10.986;2023-01-10T09:50:11;98787.63;;;6.32;100.00
12879;BME280;20617;49.476;10.986;2023-01-10T09:52:28;98790.34;;;6.25;100.00
12879;BME280;20617;49.476;10.986;2023-01-10T09:54:39;98782.53;;;6.29;100.00
12879;BME280;20617;49.476;10.986;2023-01-10T09:56:46;98769.38;;;6.43;100.00
12879;BME280;20617;49.476;10.986;2023-01-10T09:58:54;98765.50;;;6.66;100.00
12879;BME280;20617;49.476;10.986;2023-01-10T10:01:03;98759.16;;;6.84;100.00
12879;BME280;20617;49.476;10.986;2023-01-10T10:03:27;98761.22;;;7.10;100.00
12879;BME280;20617;49.476;10.986;2023-01-10T10:05:35;98749.66;;;7.28;100.00
12879;BME280;20617;49.476;10.986;2023-01-10T10:07:40;98746.09;;;7.33;100.00
12879;BME280;20617;49.476;10.986;2023-01-10T10:09:45;98746.69;;;7.44;100.00
12879;BME280;20617;49.476;10.986;2023-01-10T10:11:59;98753.41;;;7.53;100.00
12879;BME280;20617;49.476;10.986;2023-01-10T10:14:19;98753.41;;;7.53;100.00
12879;BME280;20617;49.476;10.986;2023-01-10T10:16:30;98767.53;;;7.38;100.00
12879;BME280;20617;49.476;10.986;2023-01-10T10:18:44;98766.91;;;7.27;100.00
12879;BME280;20617;49.476;10.986;2023-01-10T10:20:57;98763.97;;;7.00;100.00
12879;BME280;20617;49.476;10.986;2023-01-10T10:23:17;98775.66;;;6.76;100.00
12879;BME280;20617;49.476;10.986;2023-01-10T10:25:38;98787.81;;;6.73;100.00
12879;BME280;20617;49.476;10.986;2023-01-10T10:27:59;98786.31;;;6.60;100.00
12879;BME280;20617;49.476;10.986;2023-01-10T10:30:27;98790.06;;;6.43;100.00
12879;BME280;20617;49.476;10.986;2023-01-10T10:32:38;98797.81;;;6.43;100.00
12879;BME280;20617;49.476;10.986;2023-01-10T10:34:51;98792.75;;;6.37;100.00
12879;BME280;20617;49.476;10.986;2023-01-10T10:37:00;98795.22;;;6.43;100.00
12879;BME280;20617;49.476;10.986;2023-01-10T10:39:10;98795.06;;;6.52;100.00
12879;BME280;20617;49.476;10.986;2023-01-10T10:41:30;98792.47;;;6.52;100.00
12879;BME280;20617;49.476;10.986;2023-01-10T10:43:38;98792.38;;;6.57;100.00
12879;BME280;20617;49.476;10.986;2023-01-10T10:45:48;98792.44;;;6.54;100.00
12879;BME280;20617;49.476;10.986;2023-01-10T10:47:59;98788.16;;;6.53;100.00
12879;BME280;20617;49.476;10.986;2023-01-10T10:50:15;98789.00;;;6.53;100.00
12879;BME280;20617;49.476;10.986;2023-01-10T10:52:21;98785.44;;;6.61;100.00
12879;BME280;20617;49.476;10.986;2023-01-10T10:54:35;98790.41;;;6.73;100.00
12879;BME280;20617;49.476;10.986;2023-01-10T10:56:40;98788.53;;;6.79;100.00
12879;BME280;20617;49.476;10.986;2023-01-10T10:58:48;98796.00;;;6.95;100.00
12879;BME280;20617;49.476;10.986;2023-01-10T11:00:59;98785.72;;;6.93;100.00
12879;BME280;20617;49.476;10.986;2023-01-10T11:03:11;98785.59;;;6.99;100.00
12879;BME280;20617;49.476;10.986;2023-01-10T11:05:20;98797.31;;;7.17;100.00
12879;BME280;20617;49.476;10.986;2023-01-10T11:07:29;98798.91;;;7.24;100.00
12879;BME280;20617;49.476;10.986;2023-01-10T11:09:35;98801.34;;;7.32;100.00